createdAt,value
2022-10-23T00:01:34.607Z,24.15
2022-10-23T00:04:04.142Z,18.52
2022-10-23T00:06:33.203Z,20.75
2022-10-23T00:09:01.022Z,25.70
2022-10-23T00:11:30.800Z,27.83
2022-10-23T00:14:00.367Z,22.27
2022-10-23T00:16:29.233Z,21.13
2022-10-23T00:18:56.720Z,20.45
2022-10-23T00:21:24.761Z,24.70
2022-10-23T00:23:52.471Z,21.15
2022-10-23T00:26:20.311Z,22.13
2022-10-23T00:28:49.560Z,22.63
2022-10-23T00:31:16.966Z,20.83
2022-10-23T00:33:45.920Z,23.52
2022-10-23T00:36:15.154Z,21.33
2022-10-23T00:38:44.544Z,25.33
2022-10-23T00:41:15.859Z,20.02
2022-10-23T00:43:59.639Z,22.02
2022-10-23T00:46:26.990Z,24.70
2022-10-23T00:48:56.089Z,24.67
2022-10-23T00:51:23.558Z,25.70
2022-10-23T00:54:12.826Z,23.85
2022-10-23T00:56:43.243Z,21.40
2022-10-23T00:59:11.003Z,24.63
2022-10-23T01:01:38.546Z,19.70
2022-10-23T01:04:08.631Z,23.70
2022-10-23T01:06:38.087Z,26.10
2022-10-23T01:09:10.509Z,20.80
2022-10-23T01:11:41.923Z,24.00
2022-10-23T01:14:17.327Z,21.30
2022-10-23T01:16:49.984Z,26.80
2022-10-23T01:19:23.093Z,21.73
2022-10-23T01:21:56.571Z,17.80
2022-10-23T01:24:37.030Z,23.00
2022-10-23T01:27:27.295Z,23.25
2022-10-23T01:30:02.043Z,21.92
2022-10-23T01:32:41.196Z,22.60
2022-10-23T01:35:13.633Z,20.60
2022-10-23T01:37:45.112Z,26.08
2022-10-23T01:40:18.717Z,21.08
2022-10-23T01:42:50.574Z,23.77
2022-10-23T01:45:25.317Z,19.55
2022-10-23T01:47:54.308Z,23.02
2022-10-23T01:50:22.873Z,22.63
2022-10-23T01:52:56.832Z,20.35
2022-10-23T01:55:25.614Z,22.83
2022-10-23T01:57:54.786Z,18.38
2022-10-23T02:00:26.489Z,23.42
2022-10-23T02:02:54.653Z,17.20
2022-10-23T02:05:28.521Z,18.25
2022-10-23T02:07:57.173Z,20.58
2022-10-23T02:10:30.568Z,20.38
2022-10-23T02:13:04.439Z,18.90
2022-10-23T02:15:35.863Z,17.70
2022-10-23T02:18:07.372Z,20.70
2022-10-23T02:20:38.480Z,16.95
2022-10-23T02:23:13.093Z,24.70
2022-10-23T02:25:47.182Z,20.85
2022-10-23T02:30:47.596Z,22.02
2022-10-23T02:33:15.624Z,18.95
2022-10-23T02:35:43.354Z,17.35
2022-10-23T02:38:29.893Z,20.48
2022-10-23T02:40:59.492Z,19.20
2022-10-23T02:43:33.185Z,23.67
2022-10-23T02:46:06.889Z,19.23
2022-10-23T02:48:39.998Z,16.92
2022-10-23T02:51:15.211Z,22.10
2022-10-23T02:53:48.946Z,14.32
2022-10-23T02:56:22.011Z,19.42
2022-10-23T02:58:59.249Z,21.00
2022-10-23T03:01:30.478Z,18.95
2022-10-23T03:03:59.433Z,18.55
2022-10-23T03:06:26.837Z,17.02
2022-10-23T03:08:55.509Z,19.55
2022-10-23T03:11:25.473Z,26.45
2022-10-23T03:13:54.201Z,19.83
2022-10-23T03:16:21.550Z,15.55
2022-10-23T03:18:54.108Z,17.83
2022-10-23T03:21:21.537Z,19.65
2022-10-23T03:23:52.846Z,17.15
2022-10-23T03:26:27.677Z,14.57
2022-10-23T03:28:56.395Z,17.77
2022-10-23T03:31:24.610Z,17.42
2022-10-23T03:33:56.732Z,17.05
2022-10-23T03:36:24.231Z,18.77
2022-10-23T03:38:52.138Z,17.50
2022-10-23T03:41:19.485Z,19.05
2022-10-23T03:43:46.840Z,19.17
2022-10-23T03:46:15.585Z,17.35
2022-10-23T03:48:43.274Z,20.05
2022-10-23T03:51:11.390Z,17.88
2022-10-23T03:53:41.287Z,18.27
2022-10-23T03:56:08.689Z,19.55
2022-10-23T03:58:36.222Z,22.35
2022-10-23T04:01:03.648Z,18.73
2022-10-23T04:03:32.335Z,20.90
2022-10-23T04:05:59.700Z,17.33
2022-10-23T04:08:27.067Z,19.90
2022-10-23T04:10:55.399Z,17.90
2022-10-23T04:13:35.177Z,19.92
2022-10-23T04:16:02.733Z,16.60
2022-10-23T04:18:30.082Z,17.90
2022-10-23T04:20:59.044Z,14.93
2022-10-23T04:23:26.434Z,16.75
2022-10-23T04:25:57.142Z,16.85
2022-10-23T04:28:25.988Z,15.50
2022-10-23T04:30:53.658Z,15.85
2022-10-23T04:33:21.050Z,16.05
2022-10-23T04:35:50.934Z,11.77
2022-10-23T04:38:19.801Z,21.42
2022-10-23T04:40:47.167Z,20.30
2022-10-23T04:43:20.064Z,14.20
2022-10-23T04:45:49.384Z,18.27
2022-10-23T04:48:16.856Z,19.38
2022-10-23T04:51:06.419Z,20.83
2022-10-23T04:53:53.780Z,15.98
2022-10-23T04:56:31.533Z,17.77
2022-10-23T05:04:09.577Z,22.67
2022-10-23T05:06:55.388Z,18.27
2022-10-23T05:09:38.075Z,18.15
2022-10-23T05:12:31.532Z,21.52
2022-10-23T05:14:59.017Z,24.92
2022-10-23T05:17:29.102Z,22.30
2022-10-23T05:19:57.672Z,24.63
2022-10-23T05:22:26.747Z,19.65
2022-10-23T05:24:55.714Z,25.80
2022-10-23T05:27:25.658Z,29.30
2022-10-23T05:29:54.891Z,26.48
2022-10-23T05:32:26.905Z,25.55
2022-10-23T05:34:54.700Z,50.83
2022-10-23T05:37:25.292Z,31.83
2022-10-23T05:40:01.358Z,29.40
2022-10-23T05:42:28.993Z,32.60
2022-10-23T05:44:57.699Z,38.13
2022-10-23T05:47:44.989Z,35.28
2022-10-23T05:50:26.397Z,32.20
2022-10-23T05:53:16.546Z,29.00
2022-10-23T05:55:53.350Z,31.58
2022-10-23T05:58:44.146Z,30.98
2022-10-23T06:01:20.406Z,37.92
2022-10-23T06:03:56.326Z,30.70
2022-10-23T06:06:30.619Z,30.30
2022-10-23T06:08:58.437Z,27.00
2022-10-23T06:11:27.208Z,32.30
2022-10-23T06:14:00.602Z,35.08
2022-10-23T06:16:28.053Z,30.55
2022-10-23T06:18:57.338Z,30.13
2022-10-23T06:21:25.175Z,29.90
2022-10-23T06:23:53.486Z,30.63
2022-10-23T06:26:42.185Z,29.65
2022-10-23T06:29:18.953Z,29.60
2022-10-23T06:31:46.377Z,31.05
2022-10-23T06:34:13.927Z,37.88
2022-10-23T06:36:41.877Z,31.40
2022-10-23T06:39:32.427Z,30.52
2022-10-23T06:42:24.330Z,31.58
2022-10-23T06:44:54.344Z,29.60
2022-10-23T06:47:59.838Z,32.05
2022-10-23T06:50:48.974Z,30.33
2022-10-23T06:53:20.940Z,31.17
2022-10-23T06:56:00.180Z,29.15
2022-10-23T06:58:29.032Z,26.08
2022-10-23T07:01:13.536Z,31.75
2022-10-23T07:03:43.588Z,28.10
2022-10-23T07:06:12.003Z,25.92
2022-10-23T07:08:39.914Z,23.33
2022-10-23T07:11:42.086Z,17.40
2022-10-23T07:14:10.752Z,24.67
2022-10-23T07:16:38.186Z,21.55
2022-10-23T07:19:06.815Z,16.55
2022-10-23T07:21:56.095Z,19.25
2022-10-23T07:24:42.059Z,22.85
2022-10-23T07:27:26.616Z,22.73
2022-10-23T07:29:58.420Z,24.40
2022-10-23T07:32:29.426Z,18.77
2022-10-23T07:37:56.546Z,25.08
2022-10-23T07:40:24.251Z,20.77
2022-10-23T07:42:54.788Z,13.45
2022-10-23T07:45:23.549Z,16.77
2022-10-23T07:47:51.787Z,13.85
2022-10-23T07:50:20.659Z,18.25
2022-10-23T07:52:48.692Z,19.20
2022-10-23T07:55:18.153Z,17.08
2022-10-23T07:57:57.771Z,13.73
2022-10-23T08:00:33.885Z,16.77
2022-10-23T08:03:13.314Z,17.02
2022-10-23T08:05:41.339Z,14.25
2022-10-23T08:08:09.748Z,16.90
2022-10-23T08:10:41.468Z,14.98
2022-10-23T08:13:13.501Z,13.82
2022-10-23T08:15:53.972Z,15.43
2022-10-23T08:18:49.419Z,13.30
2022-10-23T08:21:18.316Z,16.38
2022-10-23T08:23:46.115Z,16.88
2022-10-23T08:26:13.928Z,15.27
2022-10-23T08:28:41.853Z,12.65
2022-10-23T08:31:13.108Z,13.20
2022-10-23T08:33:42.865Z,14.15
2022-10-23T08:36:17.592Z,10.13
2022-10-23T08:38:44.938Z,13.73
2022-10-23T08:41:25.676Z,11.18
2022-10-23T08:44:02.651Z,11.02
2022-10-23T08:46:39.131Z,14.77
2022-10-23T08:49:40.393Z,11.40
2022-10-23T08:52:15.265Z,11.73
2022-10-23T08:54:50.865Z,12.43
2022-10-23T08:57:19.371Z,10.82
2022-10-23T08:59:48.114Z,16.38
2022-10-23T09:02:21.897Z,11.57
2022-10-23T09:04:50.630Z,10.45
2022-10-23T09:07:29.462Z,10.80
2022-10-23T09:10:04.950Z,11.20
2022-10-23T09:12:32.670Z,13.40
2022-10-23T09:15:15.217Z,15.52
2022-10-23T09:17:44.774Z,13.70
2022-10-23T09:20:17.707Z,14.40
2022-10-23T09:22:45.493Z,18.05
2022-10-23T09:25:18.578Z,18.73
2022-10-23T09:27:49.666Z,12.52
2022-10-23T09:30:31.747Z,10.43
2022-10-23T09:33:00.792Z,13.57
2022-10-23T09:35:30.098Z,11.23
2022-10-23T09:37:57.905Z,17.58
2022-10-23T09:40:30.924Z,8.30
2022-10-23T09:43:00.507Z,10.73
2022-10-23T09:45:31.840Z,11.73
2022-10-23T09:48:12.905Z,10.52
2022-10-23T09:50:47.122Z,10.30
2022-10-23T09:53:16.713Z,9.23
2022-10-23T09:55:44.505Z,9.75
2022-10-23T09:58:21.269Z,13.18
2022-10-23T10:00:52.287Z,10.93
2022-10-23T10:03:38.250Z,12.23
2022-10-23T10:06:23.168Z,9.52
2022-10-23T10:08:53.169Z,15.15
2022-10-23T10:11:25.326Z,8.80
2022-10-23T10:14:02.299Z,10.05
2022-10-23T10:16:37.627Z,10.80
2022-10-23T10:19:13.500Z,11.40
2022-10-23T10:21:44.387Z,15.40
2022-10-23T10:24:17.491Z,11.93
2022-10-23T10:26:51.422Z,8.77
2022-10-23T10:29:29.799Z,10.77
2022-10-23T10:32:05.904Z,12.10
2022-10-23T10:34:40.990Z,11.10
2022-10-23T10:37:18.249Z,9.93
2022-10-23T10:39:48.961Z,8.88
2022-10-23T10:42:29.707Z,7.45
2022-10-23T10:45:18.066Z,6.97
2022-10-23T10:47:54.653Z,11.88
2022-10-23T10:50:29.329Z,10.15
2022-10-23T10:53:22.899Z,4.72
2022-10-23T10:55:52.346Z,5.50
2022-10-23T10:58:24.648Z,8.80
2022-10-23T11:00:55.507Z,9.18
2022-10-23T11:03:34.975Z,8.35
2022-10-23T11:06:13.263Z,5.35
2022-10-23T11:08:56.345Z,10.90
2022-10-23T11:11:29.145Z,6.55
2022-10-23T11:13:57.537Z,7.60
2022-10-23T11:16:26.959Z,10.18
2022-10-23T11:19:03.387Z,7.22
2022-10-23T11:21:36.311Z,9.38
2022-10-23T11:24:30.459Z,12.07
2022-10-23T11:29:51.743Z,7.03
2022-10-23T11:32:29.843Z,11.48
2022-10-23T11:35:09.165Z,8.65
2022-10-23T11:37:37.839Z,8.35
2022-10-23T11:40:19.586Z,8.55
2022-10-23T11:42:48.719Z,9.70
2022-10-23T11:45:34.948Z,12.13
2022-10-23T11:48:03.893Z,9.63
2022-10-23T11:50:34.275Z,6.53
2022-10-23T11:53:14.714Z,10.00
2022-10-23T11:56:01.431Z,8.18
2022-10-23T11:58:32.484Z,4.75
2022-10-23T12:01:04.298Z,12.50
2022-10-23T12:03:40.723Z,8.15
2022-10-23T12:06:08.516Z,5.97
2022-10-23T12:08:41.108Z,6.95
2022-10-23T12:11:27.507Z,8.75
2022-10-23T12:13:55.434Z,6.63
2022-10-23T12:16:22.766Z,10.98
2022-10-23T12:18:52.917Z,8.05
2022-10-23T12:21:28.023Z,7.90
2022-10-23T12:24:09.198Z,7.43
2022-10-23T12:26:48.969Z,9.35
2022-10-23T12:29:25.718Z,11.88
2022-10-23T12:31:57.869Z,10.80
2022-10-23T12:34:33.685Z,8.32
2022-10-23T12:37:15.779Z,8.07
2022-10-23T12:39:44.464Z,10.82
2022-10-23T12:42:16.761Z,7.32
2022-10-23T12:44:44.116Z,8.48
2022-10-23T12:47:17.473Z,9.65
2022-10-23T12:49:49.286Z,8.15
2022-10-23T12:52:18.784Z,8.57
2022-10-23T12:54:50.603Z,7.22
2022-10-23T12:57:21.786Z,9.25
2022-10-23T12:59:49.813Z,11.32
2022-10-23T13:02:24.175Z,9.88
2022-10-23T13:04:52.666Z,10.63
2022-10-23T13:07:22.057Z,6.65
2022-10-23T13:09:51.902Z,7.97
2022-10-23T13:12:28.549Z,10.27
2022-10-23T13:14:58.906Z,9.85
2022-10-23T13:17:35.392Z,13.45
2022-10-23T13:20:10.918Z,10.68
2022-10-23T13:22:41.582Z,11.38
2022-10-23T13:25:27.694Z,6.15
2022-10-23T13:28:13.520Z,11.93
2022-10-23T13:30:42.999Z,8.98
2022-10-23T13:33:23.094Z,7.82
2022-10-23T13:35:57.839Z,9.65
2022-10-23T13:38:33.168Z,4.70
2022-10-23T13:41:03.052Z,6.07
2022-10-23T13:43:31.542Z,10.93
2022-10-23T13:45:59.632Z,12.73
2022-10-23T13:48:27.607Z,15.90
2022-10-23T13:50:55.524Z,12.85
2022-10-23T13:53:22.851Z,9.23
2022-10-23T13:55:54.880Z,9.32
2022-10-23T13:58:26.607Z,14.20
2022-10-23T14:00:54.541Z,9.88
2022-10-23T14:03:24.244Z,12.80
2022-10-23T14:05:51.722Z,8.07
2022-10-23T14:08:19.540Z,10.52
2022-10-23T14:10:47.142Z,10.00
2022-10-23T14:13:14.517Z,11.10
2022-10-23T14:15:43.212Z,7.88
2022-10-23T14:18:10.576Z,8.98
2022-10-23T14:20:39.078Z,11.95
2022-10-23T14:23:06.417Z,7.35
2022-10-23T14:25:33.755Z,10.63
2022-10-23T14:28:01.110Z,15.90
2022-10-23T14:30:28.551Z,11.65
2022-10-23T14:32:57.211Z,9.32
2022-10-23T14:35:25.476Z,10.13
2022-10-23T14:37:52.811Z,7.55
2022-10-23T14:40:20.158Z,12.88
2022-10-23T14:42:47.878Z,9.45
2022-10-23T14:45:15.626Z,10.57
2022-10-23T14:47:43.337Z,8.95
2022-10-23T14:50:12.897Z,9.10
2022-10-23T14:52:40.260Z,10.73
2022-10-23T14:55:08.220Z,11.80
2022-10-23T14:57:35.594Z,11.45
2022-10-23T15:00:02.993Z,11.45
2022-10-23T15:02:30.407Z,10.75
2022-10-23T15:04:57.758Z,15.27
2022-10-23T15:07:26.410Z,8.45
2022-10-23T15:09:53.752Z,8.98
2022-10-23T15:12:21.077Z,11.40
2022-10-23T15:14:48.420Z,12.68
2022-10-23T15:17:15.971Z,12.32
2022-10-23T15:19:43.370Z,12.68
2022-10-23T15:22:10.693Z,12.80
2022-10-23T15:24:39.347Z,16.83
2022-10-23T15:27:06.820Z,11.13
2022-10-23T15:29:34.207Z,11.20
2022-10-23T15:32:02.478Z,14.38
2022-10-23T15:34:32.364Z,18.45
2022-10-23T15:37:00.490Z,15.52
2022-10-23T15:39:33.539Z,12.40
2022-10-23T15:42:03.661Z,11.27
2022-10-23T15:44:32.211Z,14.88
2022-10-23T15:47:00.321Z,11.15
2022-10-23T15:49:30.182Z,11.75
2022-10-23T15:51:58.057Z,12.70
2022-10-23T15:54:28.151Z,10.30
2022-10-23T15:56:58.043Z,13.30
2022-10-23T15:59:26.831Z,11.30
2022-10-23T16:01:55.359Z,11.07
2022-10-23T16:04:23.074Z,10.90
2022-10-23T16:06:50.664Z,9.32
2022-10-23T16:09:18.318Z,12.20
2022-10-23T16:11:45.683Z,8.70
2022-10-23T16:14:14.290Z,11.68
2022-10-23T16:16:43.324Z,13.60
2022-10-23T16:19:11.217Z,12.98
2022-10-23T16:21:38.590Z,10.93
2022-10-23T16:24:07.742Z,14.07
2022-10-23T16:26:35.938Z,13.52
2022-10-23T16:29:05.559Z,11.90
2022-10-23T16:31:33.065Z,13.40
2022-10-23T16:34:02.362Z,10.43
2022-10-23T16:36:29.874Z,14.50
2022-10-23T16:39:19.573Z,9.88
2022-10-23T16:42:05.879Z,14.32
2022-10-23T16:44:47.097Z,14.73
2022-10-23T16:47:14.450Z,8.82
2022-10-23T16:49:43.185Z,12.45
2022-10-23T16:52:10.584Z,14.32
2022-10-23T16:54:37.926Z,18.08
2022-10-23T16:57:05.277Z,14.98
2022-10-23T16:59:32.637Z,12.93
2022-10-23T17:02:00.072Z,16.45
2022-10-23T17:04:27.569Z,17.98
2022-10-23T17:06:56.223Z,16.90
2022-10-23T17:09:23.968Z,18.60
2022-10-23T17:11:53.445Z,18.27
2022-10-23T17:14:24.890Z,14.07
2022-10-23T17:16:53.622Z,13.80
2022-10-23T17:19:45.066Z,17.30
2022-10-23T17:22:13.734Z,15.50
2022-10-23T17:24:42.459Z,11.10
2022-10-23T17:27:09.920Z,16.75
2022-10-23T17:29:37.420Z,24.42
2022-10-23T17:32:05.074Z,22.85
2022-10-23T17:34:32.512Z,19.50
2022-10-23T17:36:59.856Z,18.55
2022-10-23T17:39:29.771Z,21.42
2022-10-23T17:41:57.652Z,13.43
2022-10-23T17:44:25.140Z,17.17
2022-10-23T17:46:54.116Z,12.35
2022-10-23T17:49:22.124Z,13.20
2022-10-23T17:51:53.661Z,18.45
2022-10-23T17:54:21.660Z,12.55
2022-10-23T17:56:50.603Z,11.15
2022-10-23T17:59:19.450Z,14.30
2022-10-23T18:01:48.067Z,12.95
2022-10-23T18:04:17.013Z,15.10
2022-10-23T18:06:46.179Z,12.10
2022-10-23T18:09:13.527Z,17.08
2022-10-23T18:11:45.211Z,11.68
2022-10-23T18:14:16.959Z,12.50
2022-10-23T18:16:45.453Z,9.90
2022-10-23T18:19:12.916Z,9.45
2022-10-23T18:21:40.285Z,12.07
2022-10-23T18:24:08.101Z,15.23
2022-10-23T18:26:37.536Z,13.43
2022-10-23T18:29:07.554Z,11.30
2022-10-23T18:31:37.582Z,13.48
2022-10-23T18:34:07.449Z,12.80
2022-10-23T18:36:36.993Z,13.90
2022-10-23T18:39:05.096Z,17.30
2022-10-23T18:41:34.362Z,13.85
2022-10-23T18:44:02.168Z,11.35
2022-10-23T18:46:29.615Z,11.98
2022-10-23T18:48:58.376Z,15.27
2022-10-23T18:51:27.879Z,12.07
2022-10-23T18:53:55.624Z,13.32
2022-10-23T18:56:26.621Z,16.00
2022-10-23T18:58:55.612Z,12.13
2022-10-23T19:01:23.973Z,14.48
2022-10-23T19:03:51.491Z,14.60
2022-10-23T19:06:21.181Z,13.73
2022-10-23T19:08:49.293Z,13.50
2022-10-23T19:11:17.735Z,12.63
2022-10-23T19:13:45.147Z,11.70
2022-10-23T19:16:15.780Z,14.05
2022-10-23T19:18:45.539Z,9.10
2022-10-23T19:21:13.134Z,10.88
2022-10-23T19:23:42.399Z,11.55
2022-10-23T19:26:12.972Z,9.45
2022-10-23T19:28:42.510Z,15.40
2022-10-23T19:31:10.710Z,12.55
2022-10-23T19:33:39.199Z,12.70
2022-10-23T19:36:11.100Z,13.48
2022-10-23T19:38:41.363Z,13.48
2022-10-23T19:41:10.023Z,12.70
2022-10-23T19:43:37.794Z,14.70
2022-10-23T19:46:09.357Z,14.35
2022-10-23T19:48:42.266Z,12.65
2022-10-23T19:51:09.671Z,12.32
2022-10-23T19:53:37.210Z,11.13
2022-10-23T19:56:05.665Z,12.73
2022-10-23T19:58:34.384Z,14.63
2022-10-23T20:01:07.928Z,12.43
2022-10-23T20:03:35.366Z,13.38
2022-10-23T20:06:02.718Z,14.45
2022-10-23T20:08:32.713Z,16.17
2022-10-23T20:11:05.606Z,10.38
2022-10-23T20:13:34.283Z,16.40
2022-10-23T20:16:01.617Z,16.92
2022-10-23T20:18:29.044Z,13.93
2022-10-23T20:20:56.386Z,12.73
2022-10-23T20:23:23.806Z,13.80
2022-10-23T20:25:51.158Z,15.70
2022-10-23T20:28:18.638Z,11.57
2022-10-23T20:30:47.300Z,12.68
2022-10-23T20:33:14.632Z,12.55
2022-10-23T20:35:42.979Z,16.23
2022-10-23T20:38:10.839Z,12.38
2022-10-23T20:40:38.186Z,15.43
2022-10-23T20:43:05.709Z,13.30
2022-10-23T20:45:33.063Z,17.55
2022-10-23T20:48:01.761Z,15.88
2022-10-23T20:50:29.142Z,14.65
2022-10-23T20:52:56.577Z,18.20
2022-10-23T20:55:23.931Z,12.75
2022-10-23T20:57:51.266Z,15.20
2022-10-23T21:00:18.833Z,12.18
2022-10-23T21:02:48.572Z,16.17
2022-10-23T21:05:20.022Z,11.60
2022-10-23T21:07:47.368Z,14.05
2022-10-23T21:10:14.918Z,16.92
2022-10-23T21:12:42.534Z,14.75
2022-10-23T21:15:10.934Z,14.70
2022-10-23T21:17:40.702Z,15.48
2022-10-23T21:20:08.526Z,12.40
2022-10-23T21:22:37.176Z,17.75
2022-10-23T21:25:04.822Z,16.15
2022-10-23T21:27:32.191Z,17.05
2022-10-23T21:29:59.550Z,25.02
2022-10-23T21:32:26.896Z,15.98
2022-10-23T21:34:55.021Z,14.30
2022-10-23T21:37:24.893Z,15.43
2022-10-23T21:39:53.651Z,13.25
2022-10-23T21:42:21.053Z,20.10
2022-10-23T21:44:48.428Z,16.70
2022-10-23T21:47:15.803Z,15.68
2022-10-23T21:49:43.321Z,16.58
2022-10-23T21:52:10.692Z,14.90
2022-10-23T21:54:38.083Z,19.88
2022-10-23T21:57:16.141Z,16.38
2022-10-23T21:59:43.666Z,17.00
2022-10-23T22:02:11.402Z,21.95
2022-10-23T22:04:39.365Z,14.60
2022-10-23T22:07:07.395Z,19.38
2022-10-23T22:09:35.376Z,18.40
2022-10-23T22:12:02.737Z,16.85
2022-10-23T22:14:31.382Z,17.73
2022-10-23T22:16:58.737Z,15.70
2022-10-23T22:19:26.452Z,17.80
2022-10-23T22:21:53.795Z,18.60
2022-10-23T22:24:21.141Z,16.67
2022-10-23T22:26:50.975Z,16.88
2022-10-23T22:29:19.951Z,17.63
2022-10-23T22:31:49.801Z,21.38
2022-10-23T22:34:27.038Z,22.23
2022-10-23T22:37:07.651Z,31.38
2022-10-23T22:39:34.994Z,17.90
2022-10-23T22:42:02.344Z,18.02
2022-10-23T22:44:29.780Z,18.70
2022-10-23T22:46:58.411Z,20.63
2022-10-23T22:49:25.762Z,16.52
2022-10-23T22:51:53.096Z,22.27
2022-10-23T22:54:20.442Z,21.67
2022-10-23T22:56:47.827Z,17.05
2022-10-23T22:59:15.167Z,19.63
2022-10-23T23:01:45.668Z,20.70
2022-10-23T23:04:36.571Z,21.25
2022-10-23T23:07:04.980Z,26.05
2022-10-23T23:09:32.300Z,20.13
2022-10-23T23:11:59.640Z,22.25
2022-10-23T23:14:26.984Z,18.55
2022-10-23T23:16:54.347Z,22.38
2022-10-23T23:19:23.331Z,18.95
2022-10-23T23:21:50.685Z,19.00
2022-10-23T23:24:18.033Z,25.67
2022-10-23T23:26:45.373Z,21.02
2022-10-23T23:29:13.285Z,21.02
2022-10-23T23:31:40.638Z,19.42
2022-10-23T23:34:08.005Z,19.83
2022-10-23T23:36:36.651Z,27.90
2022-10-23T23:39:05.974Z,20.75
2022-10-23T23:41:33.355Z,21.88
2022-10-23T23:44:00.696Z,24.30
2022-10-23T23:46:28.127Z,24.88
2022-10-23T23:48:55.460Z,25.20
2022-10-23T23:51:25.275Z,31.60
2022-10-23T23:53:54.030Z,25.63
2022-10-23T23:56:22.133Z,23.20
2022-10-23T23:58:49.525Z,25.85
